sensor_id;sensor_type;location;lat;lon;timestamp;pressure;altitude;pressure_sealevel;temperature;humidity
10460;BME280;54412;51.206;6.888;2023-07-09T00:00:47;101045.47;;;25.49;50.58
10460;BME280;54412;51.206;6.888;2023-07-09T00:03:15;101047.63;;;25.45;50.54
10460;BME280;54412;51.206;6.888;2023-07-09T00:05:42;101046.28;;;25.49;50.63
10460;BME280;54412;51.206;6.888;2023-07-09T00:08:28;101038.06;;;25.33;51.23
10460;BME280;54412;51.206;6.888;2023-07-09T00:10:58;101037.72;;;25.28;51.48
10460;BME280;54412;51.206;6.888;2023-07-09T00:13:26;101031.53;;;25.36;51.07
10460;BME280;54412;51.206;6.888;2023-07-09T00:16:07;101023.81;;;25.15;51.87
10460;BME280;54412;51.206;6.888;2023-07-09T00:18:36;101033.81;;;25.23;51.39
10460;BME280;54412;51.206;6.888;2023-07-09T00:21:01;101032.25;;;25.12;51.29
10460;BME280;54412;51.206;6.888;2023-07-09T00:23:27;101034.66;;;25.23;51.01
10460;BME280;54412;51.206;6.888;2023-07-09T00:25:53;101038.06;;;25.33;50.97
10460;BME280;54412;51.206;6.888;2023-07-09T00:28:19;101033.91;;;25.39;50.96
10460;BME280;54412;51.206;6.888;2023-07-09T00:30:46;101034.94;;;25.38;50.86
10460;BME280;54412;51.206;6.888;2023-07-09T00:33:15;101033.63;;;25.42;50.68
10460;BME280;54412;51.206;6.888;2023-07-09T00:35:42;101030.06;;;25.41;50.71
10460;BME280;54412;51.206;6.888;2023-07-09T00:38:22;101033.00;;;25.30;51.19
10460;BME280;54412;51.206;6.888;2023-07-09T00:41:06;101022.41;;;25.03;51.58
10460;BME280;54412;51.206;6.888;2023-07-09T00:43:44;101021.28;;;25.14;51.48
10460;BME280;54412;51.206;6.888;2023-07-09T00:48:53;101029.94;;;25.25;50.96
10460;BME280;54412;51.206;6.888;2023-07-09T00:51:25;101022.47;;;25.11;51.44
10460;BME280;54412;51.206;6.888;2023-07-09T00:54:03;101031.09;;;25.15;51.17
10460;BME280;54412;51.206;6.888;2023-07-09T00:56:43;101026.91;;;25.20;51.04
10460;BME280;54412;51.206;6.888;2023-07-09T00:59:18;101020.22;;;25.07;51.39
10460;BME280;54412;51.206;6.888;2023-07-09T01:01:46;101017.00;;;25.03;51.51
10460;BME280;54412;51.206;6.888;2023-07-09T01:04:16;101028.56;;;25.21;51.09
10460;BME280;54412;51.206;6.888;2023-07-09T01:06:51;101024.63;;;25.08;51.37
10460;BME280;54412;51.206;6.888;2023-07-09T01:09:18;101017.84;;;25.04;51.68
10460;BME280;54412;51.206;6.888;2023-07-09T01:11:44;101022.22;;;25.05;51.63
10460;BME280;54412;51.206;6.888;2023-07-09T01:14:13;101013.66;;;25.09;51.00
10460;BME280;54412;51.206;6.888;2023-07-09T01:16:52;101020.06;;;25.08;51.00
10460;BME280;54412;51.206;6.888;2023-07-09T01:19:29;101019.91;;;25.10;50.91
10460;BME280;54412;51.206;6.888;2023-07-09T01:22:00;101028.69;;;25.12;51.23
10460;BME280;54412;51.206;6.888;2023-07-09T01:27:30;101029.34;;;25.06;51.49
10460;BME280;54412;51.206;6.888;2023-07-09T01:29:57;101022.81;;;24.91;52.01
10460;BME280;54412;51.206;6.888;2023-07-09T01:32:25;101025.88;;;24.96;51.80
10460;BME280;54412;51.206;6.888;2023-07-09T01:34:55;101029.81;;;25.01;51.92
10460;BME280;54412;51.206;6.888;2023-07-09T01:37:25;101024.38;;;24.93;52.08
10460;BME280;54412;51.206;6.888;2023-07-09T01:39:52;101025.94;;;25.04;51.51
10460;BME280;54412;51.206;6.888;2023-07-09T01:42:21;101025.09;;;25.03;51.49
10460;BME280;54412;51.206;6.888;2023-07-09T01:44:49;101024.38;;;24.93;52.06
10460;BME280;54412;51.206;6.888;2023-07-09T01:47:16;101033.41;;;24.84;52.66
10460;BME280;54412;51.206;6.888;2023-07-09T01:49:43;101032.72;;;24.82;52.79
10460;BME280;54412;51.206;6.888;2023-07-09T01:52:14;101029.19;;;24.81;53.15
10460;BME280;54412;51.206;6.888;2023-07-09T01:54:42;101030.91;;;24.91;52.91
10460;BME280;54412;51.206;6.888;2023-07-09T01:57:24;101030.22;;;24.89;52.99
10460;BME280;54412;51.206;6.888;2023-07-09T01:59:53;101027.34;;;24.82;53.01
10460;BME280;54412;51.206;6.888;2023-07-09T02:02:21;101030.50;;;24.77;53.30
10460;BME280;54412;51.206;6.888;2023-07-09T02:04:53;101037.59;;;24.78;53.19
10460;BME280;54412;51.206;6.888;2023-07-09T02:07:22;101037.53;;;24.70;53.60
10460;BME280;54412;51.206;6.888;2023-07-09T02:09:49;101039.66;;;24.67;53.69
10460;BME280;54412;51.206;6.888;2023-07-09T02:12:16;101035.56;;;24.63;54.05
10460;BME280;54412;51.206;6.888;2023-07-09T02:14:44;101041.00;;;24.45;54.38
10460;BME280;54412;51.206;6.888;2023-07-09T02:17:13;101038.97;;;24.65;53.89
10460;BME280;54412;51.206;6.888;2023-07-09T02:19:39;101036.09;;;24.66;53.93
10460;BME280;54412;51.206;6.888;2023-07-09T02:22:06;101038.38;;;24.53;54.29
10460;BME280;54412;51.206;6.888;2023-07-09T02:24:33;101036.06;;;24.58;54.38
10460;BME280;54412;51.206;6.888;2023-07-09T02:27:02;101038.13;;;24.64;54.09
10460;BME280;54412;51.206;6.888;2023-07-09T02:29:29;101043.22;;;24.67;53.89
10460;BME280;54412;51.206;6.888;2023-07-09T02:31:57;101043.00;;;24.43;54.58
10460;BME280;54412;51.206;6.888;2023-07-09T02:34:26;101042.84;;;24.45;54.86
10460;BME280;54412;51.206;6.888;2023-07-09T02:36:53;101048.16;;;24.54;54.49
10460;BME280;54412;51.206;6.888;2023-07-09T02:39:20;101050.09;;;24.44;54.84
10460;BME280;54412;51.206;6.888;2023-07-09T02:41:46;101048.63;;;24.50;54.81
10460;BME280;54412;51.206;6.888;2023-07-09T02:44:12;101045.69;;;24.43;55.14
10460;BME280;54412;51.206;6.888;2023-07-09T02:46:39;101042.00;;;24.44;55.04
10460;BME280;54412;51.206;6.888;2023-07-09T02:49:06;101056.72;;;24.32;55.57
10460;BME280;54412;51.206;6.888;2023-07-09T02:51:32;101046.72;;;24.42;55.08
10460;BME280;54412;51.206;6.888;2023-07-09T02:54:01;101051.84;;;24.36;55.15
10460;BME280;54412;51.206;6.888;2023-07-09T02:56:27;101052.25;;;24.41;55.17
10460;BME280;54412;51.206;6.888;2023-07-09T02:58:53;101045.41;;;24.46;54.94
10460;BME280;54412;51.206;6.888;2023-07-09T03:01:19;101051.25;;;24.42;55.29
10460;BME280;54412;51.206;6.888;2023-07-09T03:03:51;101049.03;;;24.37;55.36
10460;BME280;54412;51.206;6.888;2023-07-09T03:06:20;101044.75;;;24.52;55.01
10460;BME280;54412;51.206;6.888;2023-07-09T03:08:46;101051.31;;;24.32;55.27
10460;BME280;54412;51.206;6.888;2023-07-09T03:11:14;101048.38;;;24.43;54.93
10460;BME280;54412;51.206;6.888;2023-07-09T03:13:41;101051.88;;;24.18;55.58
10460;BME280;54412;51.206;6.888;2023-07-09T03:16:06;101061.03;;;24.25;55.84
10460;BME280;54412;51.206;6.888;2023-07-09T03:18:32;101056.59;;;24.34;55.59
10460;BME280;54412;51.206;6.888;2023-07-09T03:20:59;101060.63;;;24.38;55.43
10460;BME280;54412;51.206;6.888;2023-07-09T03:23:25;101058.16;;;24.27;55.55
10460;BME280;54412;51.206;6.888;2023-07-09T03:25:51;101066.34;;;24.35;55.65
10460;BME280;54412;51.206;6.888;2023-07-09T03:28:17;101063.81;;;24.33;55.60
10460;BME280;54412;51.206;6.888;2023-07-09T03:30:47;101066.41;;;24.25;55.58
10460;BME280;54412;51.206;6.888;2023-07-09T03:33:16;101075.38;;;24.26;55.74
10460;BME280;54412;51.206;6.888;2023-07-09T03:35:42;101076.22;;;24.26;55.99
10460;BME280;54412;51.206;6.888;2023-07-09T03:38:09;101070.34;;;24.31;56.03
10460;BME280;54412;51.206;6.888;2023-07-09T03:40:36;101076.75;;;24.30;55.82
10460;BME280;54412;51.206;6.888;2023-07-09T03:43:07;101076.50;;;24.23;56.18
10460;BME280;54412;51.206;6.888;2023-07-09T03:45:36;101079.19;;;24.23;56.15
10460;BME280;54412;51.206;6.888;2023-07-09T03:48:03;101081.50;;;24.18;55.88
10460;BME280;54412;51.206;6.888;2023-07-09T03:50:29;101078.81;;;24.18;55.80
10460;BME280;54412;51.206;6.888;2023-07-09T03:52:55;101077.41;;;24.14;56.12
10460;BME280;54412;51.206;6.888;2023-07-09T03:55:21;101079.56;;;24.11;56.08
10460;BME280;54412;51.206;6.888;2023-07-09T03:57:46;101084.31;;;24.26;55.76
10460;BME280;54412;51.206;6.888;2023-07-09T04:00:13;101074.72;;;24.14;56.12
10460;BME280;54412;51.206;6.888;2023-07-09T04:02:41;101084.53;;;24.15;56.28
10460;BME280;54412;51.206;6.888;2023-07-09T04:05:10;101081.19;;;24.04;56.77
10460;BME280;54412;51.206;6.888;2023-07-09T04:07:36;101086.19;;;24.16;56.54
10460;BME280;54412;51.206;6.888;2023-07-09T04:10:03;101085.13;;;24.09;56.85
10460;BME280;54412;51.206;6.888;2023-07-09T04:12:29;101083.66;;;24.15;56.66
10460;BME280;54412;51.206;6.888;2023-07-09T04:14:55;101081.13;;;24.13;56.54
10460;BME280;54412;51.206;6.888;2023-07-09T04:17:21;101086.38;;;24.32;56.32
10460;BME280;54412;51.206;6.888;2023-07-09T04:19:49;101088.25;;;24.32;56.57
10460;BME280;54412;51.206;6.888;2023-07-09T04:22:15;101083.13;;;24.29;56.94
10460;BME280;54412;51.206;6.888;2023-07-09T04:24:41;101085.81;;;24.29;56.80
10460;BME280;54412;51.206;6.888;2023-07-09T04:27:08;101089.53;;;24.28;56.92
10460;BME280;54412;51.206;6.888;2023-07-09T04:29:34;101098.47;;;24.28;55.64
10460;BME280;54412;51.206;6.888;2023-07-09T04:32:02;101095.56;;;24.39;55.51
10460;BME280;54412;51.206;6.888;2023-07-09T04:34:27;101090.63;;;24.35;55.94
10460;BME280;54412;51.206;6.888;2023-07-09T04:36:53;101090.00;;;24.41;56.54
10460;BME280;54412;51.206;6.888;2023-07-09T04:39:19;101087.59;;;24.38;57.03
10460;BME280;54412;51.206;6.888;2023-07-09T04:41:44;101090.47;;;24.36;55.82
10460;BME280;54412;51.206;6.888;2023-07-09T04:44:10;101101.25;;;24.36;54.76
10460;BME280;54412;51.206;6.888;2023-07-09T04:46:36;101097.41;;;24.56;54.18
10460;BME280;54412;51.206;6.888;2023-07-09T04:49:03;101101.09;;;24.55;54.84
10460;BME280;54412;51.206;6.888;2023-07-09T04:51:29;101100.19;;;24.64;54.02
10460;BME280;54412;51.206;6.888;2023-07-09T04:53:55;101094.53;;;24.75;53.61
10460;BME280;54412;51.206;6.888;2023-07-09T04:56:20;101097.47;;;24.64;54.53
10460;BME280;54412;51.206;6.888;2023-07-09T04:58:46;101093.44;;;24.68;54.16
10460;BME280;54412;51.206;6.888;2023-07-09T05:01:12;101100.03;;;24.66;54.58
10460;BME280;54412;51.206;6.888;2023-07-09T05:03:37;101096.25;;;24.59;54.45
10460;BME280;54412;51.206;6.888;2023-07-09T05:06:04;101091.75;;;24.67;54.61
10460;BME280;54412;51.206;6.888;2023-07-09T05:08:30;101093.88;;;24.73;54.28
10460;BME280;54412;51.206;6.888;2023-07-09T05:10:57;101095.97;;;25.05;52.82
10460;BME280;54412;51.206;6.888;2023-07-09T05:13:26;101092.53;;;24.77;54.03
10460;BME280;54412;51.206;6.888;2023-07-09T05:15:52;101087.31;;;24.76;54.21
10460;BME280;54412;51.206;6.888;2023-07-09T05:18:18;101090.25;;;25.08;53.26
10460;BME280;54412;51.206;6.888;2023-07-09T05:20:46;101093.88;;;24.99;53.72
10460;BME280;54412;51.206;6.888;2023-07-09T05:23:12;101096.16;;;25.12;52.95
10460;BME280;54412;51.206;6.888;2023-07-09T05:25:38;101099.44;;;24.98;53.49
10460;BME280;54412;51.206;6.888;2023-07-09T05:28:05;101096.94;;;25.04;53.47
10460;BME280;54412;51.206;6.888;2023-07-09T05:30:31;101100.97;;;25.26;52.77
10460;BME280;54412;51.206;6.888;2023-07-09T05:32:57;101092.03;;;25.00;53.57
10460;BME280;54412;51.206;6.888;2023-07-09T05:35:27;101092.94;;;25.34;52.91
10460;BME280;54412;51.206;6.888;2023-07-09T05:37:54;101101.38;;;25.31;52.97
10460;BME280;54412;51.206;6.888;2023-07-09T05:40:20;101094.88;;;25.41;52.67
10460;BME280;54412;51.206;6.888;2023-07-09T05:42:48;101088.81;;;25.22;53.29
10460;BME280;54412;51.206;6.888;2023-07-09T05:45:15;101086.84;;;25.57;52.49
10460;BME280;54412;51.206;6.888;2023-07-09T05:47:41;101094.06;;;25.49;52.54
10460;BME280;54412;51.206;6.888;2023-07-09T05:50:08;101096.03;;;25.39;52.73
10460;BME280;54412;51.206;6.888;2023-07-09T05:52:33;101086.06;;;25.65;51.96
10460;BME280;54412;51.206;6.888;2023-07-09T05:54:59;101095.16;;;25.64;52.17
10460;BME280;54412;51.206;6.888;2023-07-09T05:57:25;101098.38;;;25.67;52.01
10460;BME280;54412;51.206;6.888;2023-07-09T05:59:51;101094.44;;;25.54;52.39
10460;BME280;54412;51.206;6.888;2023-07-09T06:02:20;101092.16;;;25.75;52.25
10460;BME280;54412;51.206;6.888;2023-07-09T06:04:47;101086.81;;;25.91;51.65
10460;BME280;54412;51.206;6.888;2023-07-09T06:07:15;101095.94;;;25.90;51.93
10460;BME280;54412;51.206;6.888;2023-07-09T06:09:42;101092.56;;;25.96;51.52
10460;BME280;54412;51.206;6.888;2023-07-09T06:12:08;101092.78;;;26.03;51.19
10460;BME280;54412;51.206;6.888;2023-07-09T06:14:34;101089.22;;;26.02;51.54
10460;BME280;54412;51.206;6.888;2023-07-09T06:17:00;101091.31;;;26.08;51.24
10460;BME280;54412;51.206;6.888;2023-07-09T06:19:27;101092.63;;;26.12;51.34
10460;BME280;54412;51.206;6.888;2023-07-09T06:21:52;101093.00;;;26.17;51.22
10460;BME280;54412;51.206;6.888;2023-07-09T06:24:18;101084.91;;;26.25;51.06
10460;BME280;54412;51.206;6.888;2023-07-09T06:26:44;101098.06;;;26.28;51.14
10460;BME280;54412;51.206;6.888;2023-07-09T06:29:09;101103.53;;;26.52;50.55
10460;BME280;54412;51.206;6.888;2023-07-09T06:31:35;101091.88;;;26.44;51.41
10460;BME280;54412;51.206;6.888;2023-07-09T06:34:03;101100.66;;;26.54;50.85
10460;BME280;54412;51.206;6.888;2023-07-09T06:36:29;101093.38;;;26.46;50.74
10460;BME280;54412;51.206;6.888;2023-07-09T06:38:55;101093.25;;;26.72;49.78
10460;BME280;54412;51.206;6.888;2023-07-09T06:41:21;101096.13;;;26.87;49.85
10460;BME280;54412;51.206;6.888;2023-07-09T06:43:46;101092.91;;;26.83;49.32
10460;BME280;54412;51.206;6.888;2023-07-09T06:46:14;101100.00;;;26.84;49.11
10460;BME280;54412;51.206;6.888;2023-07-09T06:48:40;101105.97;;;26.88;49.35
10460;BME280;54412;51.206;6.888;2023-07-09T06:51:06;101102.06;;;26.74;49.84
10460;BME280;54412;51.206;6.888;2023-07-09T06:53:33;101104.56;;;27.08;49.24
10460;BME280;54412;51.206;6.888;2023-07-09T06:55:58;101105.44;;;27.00;49.74
10460;BME280;54412;51.206;6.888;2023-07-09T06:58:27;101103.22;;;26.96;49.79
10460;BME280;54412;51.206;6.888;2023-07-09T07:00:55;101103.38;;;27.18;49.15
10460;BME280;54412;51.206;6.888;2023-07-09T07:03:22;101107.97;;;27.02;49.29
10460;BME280;54412;51.206;6.888;2023-07-09T07:05:52;101106.41;;;27.15;49.42
10460;BME280;54412;51.206;6.888;2023-07-09T07:08:25;101098.13;;;27.25;49.27
10460;BME280;54412;51.206;6.888;2023-07-09T07:10:57;101110.16;;;27.30;48.93
10460;BME280;54412;51.206;6.888;2023-07-09T07:13:35;101102.34;;;27.43;48.32
10460;BME280;54412;51.206;6.888;2023-07-09T07:16:04;101100.66;;;27.26;49.42
10460;BME280;54412;51.206;6.888;2023-07-09T07:18:31;101098.44;;;27.46;47.65
10460;BME280;54412;51.206;6.888;2023-07-09T07:20:56;101099.91;;;27.64;47.23
10460;BME280;54412;51.206;6.888;2023-07-09T07:23:22;101094.59;;;27.71;47.69
10460;BME280;54412;51.206;6.888;2023-07-09T07:25:49;101092.38;;;27.74;47.78
10460;BME280;54412;51.206;6.888;2023-07-09T07:28:16;101087.00;;;27.66;48.00
10460;BME280;54412;51.206;6.888;2023-07-09T07:30:42;101088.38;;;27.62;48.29
10460;BME280;54412;51.206;6.888;2023-07-09T07:33:08;101085.19;;;27.98;48.03
10460;BME280;54412;51.206;6.888;2023-07-09T07:35:34;101086.88;;;27.99;47.50
10460;BME280;54412;51.206;6.888;2023-07-09T07:38:00;101085.22;;;27.90;48.08
10460;BME280;54412;51.206;6.888;2023-07-09T07:40:25;101085.03;;;27.99;47.46
10460;BME280;54412;51.206;6.888;2023-07-09T07:42:51;101088.06;;;28.04;47.60
10460;BME280;54412;51.206;6.888;2023-07-09T07:45:17;101084.16;;;28.29;47.00
10460;BME280;54412;51.206;6.888;2023-07-09T07:47:43;101078.69;;;28.07;47.98
10460;BME280;54412;51.206;6.888;2023-07-09T07:50:09;101088.81;;;28.43;47.21
10460;BME280;54412;51.206;6.888;2023-07-09T07:52:35;101087.38;;;28.55;46.40
10460;BME280;54412;51.206;6.888;2023-07-09T07:55:07;101083.97;;;28.31;47.28
10460;BME280;54412;51.206;6.888;2023-07-09T07:57:33;101083.00;;;28.24;48.38
10460;BME280;54412;51.206;6.888;2023-07-09T07:59:59;101086.13;;;28.35;48.31
10460;BME280;54412;51.206;6.888;2023-07-09T08:02:25;101088.81;;;28.43;47.34
10460;BME280;54412;51.206;6.888;2023-07-09T08:04:51;101083.88;;;28.69;46.45
10460;BME280;54412;51.206;6.888;2023-07-09T08:07:18;101079.91;;;28.80;45.57
10460;BME280;54412;51.206;6.888;2023-07-09T08:09:46;101087.38;;;28.55;46.18
10460;BME280;54412;51.206;6.888;2023-07-09T08:12:13;101086.28;;;28.64;46.39
10460;BME280;54412;51.206;6.888;2023-07-09T08:14:41;101088.28;;;28.70;46.16
10460;BME280;54412;51.206;6.888;2023-07-09T08:17:08;101080.28;;;28.92;46.25
10460;BME280;54412;51.206;6.888;2023-07-09T08:19:50;101086.31;;;29.02;46.39
10460;BME280;54412;51.206;6.888;2023-07-09T08:22:16;101084.47;;;29.17;45.90
10460;BME280;54412;51.206;6.888;2023-07-09T08:24:43;101076.47;;;29.01;46.11
10460;BME280;54412;51.206;6.888;2023-07-09T08:27:09;101080.19;;;29.37;45.22
10460;BME280;54412;51.206;6.888;2023-07-09T08:29:35;101069.22;;;29.16;45.70
10460;BME280;54412;51.206;6.888;2023-07-09T08:32:02;101080.47;;;29.42;45.16
10460;BME280;54412;51.206;6.888;2023-07-09T08:34:28;101074.75;;;29.22;44.89
10460;BME280;54412;51.206;6.888;2023-07-09T08:36:54;101065.94;;;29.49;45.21
10460;BME280;54412;51.206;6.888;2023-07-09T08:39:20;101065.72;;;29.65;44.97
10460;BME280;54412;51.206;6.888;2023-07-09T08:41:54;101061.69;;;29.61;44.69
10460;BME280;54412;51.206;6.888;2023-07-09T08:45:11;101062.47;;;29.55;44.85
10460;BME280;54412;51.206;6.888;2023-07-09T08:47:56;101054.59;;;29.60;45.18
10460;BME280;54412;51.206;6.888;2023-07-09T08:50:38;101052.06;;;29.59;45.20
10460;BME280;54412;51.206;6.888;2023-07-09T08:53:17;101048.41;;;30.17;43.58
10460;BME280;54412;51.206;6.888;2023-07-09T08:55:48;101054.28;;;30.35;43.42
10460;BME280;54412;51.206;6.888;2023-07-09T08:58:29;101052.22;;;30.22;43.81
10460;BME280;54412;51.206;6.888;2023-07-09T09:01:06;101052.63;;;30.40;43.41
10460;BME280;54412;51.206;6.888;2023-07-09T09:03:51;101055.25;;;30.27;43.99
10460;BME280;54412;51.206;6.888;2023-07-09T09:06:24;101066.31;;;30.26;42.40
10460;BME280;54412;51.206;6.888;2023-07-09T09:11:45;101048.38;;;30.31;43.00
10460;BME280;54412;51.206;6.888;2023-07-09T09:14:37;101054.38;;;30.69;41.95
10460;BME280;54412;51.206;6.888;2023-07-09T09:17:20;101049.91;;;30.83;41.01
10460;BME280;54412;51.206;6.888;2023-07-09T09:20:16;101047.63;;;30.86;41.48
10460;BME280;54412;51.206;6.888;2023-07-09T09:23:12;101052.22;;;30.86;40.44
10460;BME280;54412;51.206;6.888;2023-07-09T09:25:47;101048.31;;;30.95;40.88
10460;BME280;54412;51.206;6.888;2023-07-09T09:28:15;101049.81;;;30.97;39.38
10460;BME280;54412;51.206;6.888;2023-07-09T09:30:40;101045.38;;;31.24;39.21
10460;BME280;54412;51.206;6.888;2023-07-09T09:33:10;101047.38;;;31.36;39.21
10460;BME280;54412;51.206;6.888;2023-07-09T09:35:42;101045.03;;;31.67;38.72
10460;BME280;54412;51.206;6.888;2023-07-09T09:38:21;101039.69;;;31.46;38.43
10460;BME280;54412;51.206;6.888;2023-07-09T09:40:48;101039.06;;;31.51;38.50
10460;BME280;54412;51.206;6.888;2023-07-09T09:43:19;101041.78;;;31.51;38.87
10460;BME280;54412;51.206;6.888;2023-07-09T09:45:49;101042.88;;;31.63;38.76
10460;BME280;54412;51.206;6.888;2023-07-09T09:48:31;101035.75;;;31.62;37.72
10460;BME280;54412;51.206;6.888;2023-07-09T09:50:58;101041.16;;;31.90;37.82
10460;BME280;54412;51.206;6.888;2023-07-09T09:53:29;101040.78;;;32.19;38.14
10460;BME280;54412;51.206;6.888;2023-07-09T09:55:56;101039.09;;;32.05;37.14
10460;BME280;54412;51.206;6.888;2023-07-09T09:58:29;101038.66;;;32.08;37.20
10460;BME280;54412;51.206;6.888;2023-07-09T10:00:58;101033.66;;;32.18;36.16
10460;BME280;54412;51.206;6.888;2023-07-09T10:03:36;101031.78;;;32.18;36.39
10460;BME280;54412;51.206;6.888;2023-07-09T10:06:39;101041.66;;;32.26;35.83
10460;BME280;54412;51.206;6.888;2023-07-09T10:09:50;101037.88;;;32.33;35.72
10460;BME280;54412;51.206;6.888;2023-07-09T10:12:40;101028.50;;;32.49;36.46
10460;BME280;54412;51.206;6.888;2023-07-09T10:16:03;101023.44;;;32.59;36.07
10460;BME280;54412;51.206;6.888;2023-07-09T10:18:54;101019.84;;;32.32;36.41
10460;BME280;54412;51.206;6.888;2023-07-09T10:21:31;101012.50;;;32.65;35.92
10460;BME280;54412;51.206;6.888;2023-07-09T10:26:48;101024.72;;;32.96;35.37
10460;BME280;54412;51.206;6.888;2023-07-09T10:30:13;101017.34;;;32.83;35.20
10460;BME280;54412;51.206;6.888;2023-07-09T10:32:50;101016.47;;;33.09;34.85
10460;BME280;54412;51.206;6.888;2023-07-09T10:36:19;101010.38;;;33.13;33.83
10460;BME280;54412;51.206;6.888;2023-07-09T10:38:37;101016.09;;;32.92;34.38
10460;BME280;54412;51.206;6.888;2023-07-09T10:41:11;101017.34;;;32.96;32.87
10460;BME280;54412;51.206;6.888;2023-07-09T10:43:47;101014.38;;;33.17;34.14
10460;BME280;54412;51.206;6.888;2023-07-09T10:46:25;101014.09;;;33.38;33.83
10460;BME280;54412;51.206;6.888;2023-07-09T10:48:55;101016.72;;;33.14;34.21
10460;BME280;54412;51.206;6.888;2023-07-09T10:51:36;101007.00;;;33.18;33.33
10460;BME280;54412;51.206;6.888;2023-07-09T10:57:13;101016.22;;;33.49;32.86
10460;BME280;54412;51.206;6.888;2023-07-09T10:59:42;101010.88;;;33.61;33.24
10460;BME280;54412;51.206;6.888;2023-07-09T11:02:32;101006.88;;;33.63;32.45
10460;BME280;54412;51.206;6.888;2023-07-09T11:05:01;101004.72;;;33.72;32.47
10460;BME280;54412;51.206;6.888;2023-07-09T11:07:47;101005.16;;;33.69;33.11
10460;BME280;54412;51.206;6.888;2023-07-09T11:10:31;100997.66;;;33.58;33.75
10460;BME280;54412;51.206;6.888;2023-07-09T11:13:26;100994.63;;;33.66;34.04
10460;BME280;54412;51.206;6.888;2023-07-09T11:15:56;100994.50;;;33.99;34.24
10460;BME280;54412;51.206;6.888;2023-07-09T11:18:29;100986.78;;;33.83;32.80
10460;BME280;54412;51.206;6.888;2023-07-09T11:21:01;100980.09;;;34.16;29.55
10460;BME280;54412;51.206;6.888;2023-07-09T11:24:00;100980.03;;;34.23;30.45
10460;BME280;54412;51.206;6.888;2023-07-09T11:26:32;100979.25;;;34.16;30.52
10460;BME280;54412;51.206;6.888;2023-07-09T11:31:39;100960.72;;;34.11;31.80
10460;BME280;54412;51.206;6.888;2023-07-09T11:34:16;100952.16;;;34.32;31.63
10460;BME280;54412;51.206;6.888;2023-07-09T11:39:39;100948.28;;;34.40;30.97
10460;BME280;54412;51.206;6.888;2023-07-09T11:42:33;100951.75;;;34.29;31.37
10460;BME280;54412;51.206;6.888;2023-07-09T11:45:11;100957.88;;;33.93;32.01
10460;BME280;54412;51.206;6.888;2023-07-09T11:47:47;100960.91;;;34.16;31.73
10460;BME280;54412;51.206;6.888;2023-07-09T11:50:32;100956.63;;;33.96;32.46
10460;BME280;54412;51.206;6.888;2023-07-09T11:55:45;100955.94;;;34.31;32.54
10460;BME280;54412;51.206;6.888;2023-07-09T11:58:16;100955.63;;;34.46;31.54
10460;BME280;54412;51.206;6.888;2023-07-09T12:00:48;100947.28;;;34.34;32.06
10460;BME280;54412;51.206;6.888;2023-07-09T12:03:19;100950.81;;;34.41;32.52
10460;BME280;54412;51.206;6.888;2023-07-09T12:05:53;100953.31;;;34.43;32.31
10460;BME280;54412;51.206;6.888;2023-07-09T12:08:27;100947.22;;;34.65;31.93
10460;BME280;54412;51.206;6.888;2023-07-09T12:10:54;100961.63;;;34.61;31.35
10460;BME280;54412;51.206;6.888;2023-07-09T12:13:20;100965.66;;;34.27;31.96
10460;BME280;54412;51.206;6.888;2023-07-09T12:15:46;100962.88;;;34.34;32.17
10460;BME280;54412;51.206;6.888;2023-07-09T12:18:15;100957.97;;;34.67;31.90
10460;BME280;54412;51.206;6.888;2023-07-09T12:20:47;100963.97;;;34.57;32.17
10460;BME280;54412;51.206;6.888;2023-07-09T12:23:22;100946.50;;;34.76;31.43
10460;BME280;54412;51.206;6.888;2023-07-09T12:25:51;100937.75;;;34.86;32.00
10460;BME280;54412;51.206;6.888;2023-07-09T12:28:18;100950.47;;;34.81;31.43
10460;BME280;54412;51.206;6.888;2023-07-09T12:30:47;100924.41;;;34.71;31.37
10460;BME280;54412;51.206;6.888;2023-07-09T12:33:25;100919.38;;;34.50;31.33
10460;BME280;54412;51.206;6.888;2023-07-09T12:36:02;100921.34;;;34.61;31.69
10460;BME280;54412;51.206;6.888;2023-07-09T12:38:40;100913.50;;;34.65;30.98
10460;BME280;54412;51.206;6.888;2023-07-09T12:41:23;100906.16;;;34.84;31.26
10460;BME280;54412;51.206;6.888;2023-07-09T12:43:53;100912.38;;;34.91;31.41
10460;BME280;54412;51.206;6.888;2023-07-09T12:46:21;100895.56;;;34.87;31.09
10460;BME280;54412;51.206;6.888;2023-07-09T12:48:48;100916.50;;;34.82;31.27
10460;BME280;54412;51.206;6.888;2023-07-09T12:51:22;100905.28;;;34.47;32.02
10460;BME280;54412;51.206;6.888;2023-07-09T12:54:19;100899.34;;;34.43;31.92
10460;BME280;54412;51.206;6.888;2023-07-09T12:56:49;100901.66;;;34.22;31.38
10460;BME280;54412;51.206;6.888;2023-07-09T13:02:18;100883.00;;;33.81;32.88
10460;BME280;54412;51.206;6.888;2023-07-09T13:04:45;100889.69;;;33.60;34.00
10460;BME280;54412;51.206;6.888;2023-07-09T13:09:51;100886.13;;;33.60;33.03
10460;BME280;54412;51.206;6.888;2023-07-09T13:12:18;100867.69;;;33.42;32.17
10460;BME280;54412;51.206;6.888;2023-07-09T13:14:53;100863.59;;;33.20;32.88
10460;BME280;54412;51.206;6.888;2023-07-09T13:17:19;100854.69;;;33.31;32.79
10460;BME280;54412;51.206;6.888;2023-07-09T13:19:45;100862.50;;;33.21;32.70
10460;BME280;54412;51.206;6.888;2023-07-09T13:22:16;100856.09;;;33.03;33.62
10460;BME280;54412;51.206;6.888;2023-07-09T13:24:42;100851.50;;;32.83;34.02
10460;BME280;54412;51.206;6.888;2023-07-09T13:27:12;100851.91;;;32.87;34.28
10460;BME280;54412;51.206;6.888;2023-07-09T13:29:40;100863.22;;;33.04;33.99
10460;BME280;54412;51.206;6.888;2023-07-09T13:32:15;100865.38;;;32.89;34.20
10460;BME280;54412;51.206;6.888;2023-07-09T13:34:41;100860.97;;;32.88;34.37
10460;BME280;54412;51.206;6.888;2023-07-09T13:37:14;100856.16;;;32.83;34.11